Check out our new PWSWeather beta!
PWSweather.com
Personal Weather Stations
Station Observations
MFGBD
Tower Mfg , BavendorfDE

Tower Mfg BavendorfDE

Lat: 47.752282, Lon: 9.549614

Elevation: 1525

Station Type: Wounder Weather Station

High Low Average
Temperature 50.5°F10.3°C 36.3°F2.4°C 43.1°F6.2°C
Dew Point 46.6°F8.1°C 35.5°F1.9°C 40.8°F4.9°C
Winds 9.9 mph 15.9 kmh Calm Calm 4.0 mph SSW6.4 kmh SSW
Wind Gusts 16.5 mph26.6 kmh -- 8.0 mph12.9 kmh
Humidity 100% 76% 92%
Pressure 30.25 in1024.4 mb 29.95 in1014.2 mb -
Precipitation 0.02 in0.5 mm - -
Hour Temp Dew Point Humidity Winds Wind Gusts Pressure Precip Precip Rate Daily Precip Total
05:37 AM 38.6°F3.7°C 38.6°F3.7°C 100% 7.4 mph SW11.9 kmh SW 16.5 mph26.6 kmh 29.95 in1014.2 mb 0.00 in0.0 mm 0.00 in0.0 mm 0.01 in0.3 mm
06:08 AM 38.1°F3.4°C 38.1°F3.4°C 100% 5.8 mph SW9.3 kmh SW 9.6 mph15.4 kmh 29.97 in1014.9 mb 0.00 in0.0 mm 0.00 in0.0 mm 0.01 in0.3 mm
06:38 AM 38.1°F3.4°C 38.1°F3.4°C 100% 3.4 mph SW5.5 kmh SW 9.3 mph15.0 kmh 29.99 in1015.6 mb 0.00 in0.0 mm 0.00 in0.0 mm 0.01 in0.3 mm
07:08 AM 38.6°F3.7°C 38.6°F3.7°C 100% 4.2 mph SW6.8 kmh SW 10.6 mph17.1 kmh 30.00 in1015.9 mb 0.00 in0.0 mm 0.00 in0.0 mm 0.01 in0.3 mm
07:38 AM 38.6°F3.7°C 38.6°F3.7°C 100% 5.3 mph SW8.5 kmh SW 10.6 mph17.1 kmh 30.02 in1016.6 mb 0.00 in0.0 mm 0.00 in0.0 mm 0.01 in0.3 mm
08:08 AM 39.2°F4.0°C 39.2°F4.0°C 100% 1.7 mph SW2.7 kmh SW 5.9 mph9.5 kmh 30.04 in1017.3 mb 0.00 in0.0 mm 0.00 in0.0 mm 0.01 in0.3 mm
08:38 AM 39.3°F4.1°C 39.3°F4.1°C 100% 3.1 mph S5.0 kmh S 7.1 mph11.4 kmh 30.06 in1017.9 mb 0.00 in0.0 mm 0.00 in0.0 mm 0.01 in0.3 mm
09:08 AM 42.6°F5.9°C 42.6°F5.9°C 100% 6.4 mph S10.3 kmh S 10.0 mph16.1 kmh 30.08 in1018.6 mb 0.00 in0.0 mm 0.00 in0.0 mm 0.01 in0.3 mm
09:38 AM 42.2°F5.7°C 41.9°F5.5°C 98% 5.3 mph S8.5 kmh S 10.9 mph17.5 kmh 30.10 in1019.3 mb 0.00 in0.0 mm 0.00 in0.0 mm 0.01 in0.3 mm
10:08 AM 42.9°F6.1°C 42.4°F5.8°C 98% 9.9 mph S15.9 kmh S 15.6 mph25.1 kmh 30.12 in1020.0 mb 0.00 in0.0 mm 0.00 in0.0 mm 0.01 in0.3 mm
10:38 AM 43.7°F6.5°C 42.9°F6.1°C 97% 7.6 mph S12.2 kmh S 15.3 mph24.6 kmh 30.13 in1020.3 mb 0.00 in0.0 mm 0.00 in0.0 mm 0.01 in0.3 mm
11:08 AM 42.4°F5.8°C 41.8°F5.4°C 97% 3.9 mph SSW6.3 kmh SSW 6.8 mph10.9 kmh 30.14 in1020.7 mb 0.00 in0.0 mm 0.00 in0.0 mm 0.02 in0.5 mm
11:38 AM 44.0°F6.7°C 43.6°F6.4°C 98% 5.2 mph S8.4 kmh S 7.5 mph12.1 kmh 30.14 in1020.7 mb 0.00 in0.0 mm 0.00 in0.0 mm 0.02 in0.5 mm
12:08 PM 47.6°F8.7°C 46.6°F8.1°C 96% 2.5 mph SSW4.0 kmh SSW 8.7 mph14.0 kmh 30.15 in1021.0 mb 0.00 in0.0 mm 0.00 in0.0 mm 0.02 in0.5 mm
12:38 PM 50.3°F10.2°C 45.7°F7.6°C 84% 4.5 mph SW7.2 kmh SW 10.3 mph16.6 kmh 30.15 in1021.0 mb 0.00 in0.0 mm 0.00 in0.0 mm 0.02 in0.5 mm
12:50 PM 49.6°F9.8°C 45.0°F7.2°C 84% 2.9 mph SW4.7 kmh SW 8.7 mph14.0 kmh 30.15 in1021.0 mb 0.00 in0.0 mm 0.00 in0.0 mm 0.02 in0.5 mm
01:20 PM 48.5°F9.2°C 43.2°F6.2°C 81% 6.0 mph SW9.7 kmh SW 13.4 mph21.6 kmh 30.15 in1021.0 mb 0.00 in0.0 mm 0.00 in0.0 mm 0.02 in0.5 mm
01:50 PM 48.3°F9.1°C 42.9°F6.1°C 81% 5.8 mph SW9.3 kmh SW 10.9 mph17.5 kmh 30.15 in1021.0 mb 0.00 in0.0 mm 0.00 in0.0 mm 0.02 in0.5 mm
02:20 PM 48.0°F8.9°C 42.3°F5.7°C 80% 4.4 mph SW7.1 kmh SW 12.1 mph19.5 kmh 30.16 in1021.3 mb 0.00 in0.0 mm 0.00 in0.0 mm 0.02 in0.5 mm
02:51 PM 48.3°F9.1°C 44.8°F7.1°C 87% 4.2 mph SW6.8 kmh SW 10.0 mph16.1 kmh 30.16 in1021.3 mb 0.00 in0.0 mm 0.00 in0.0 mm 0.02 in0.5 mm
03:21 PM 49.2°F9.6°C 44.4°F6.9°C 83% 5.4 mph SW8.7 kmh SW 10.3 mph16.6 kmh 30.17 in1021.7 mb 0.00 in0.0 mm 0.00 in0.0 mm 0.02 in0.5 mm
03:51 PM 50.5°F10.3°C 44.3°F6.8°C 79% 9.1 mph SSW14.6 kmh SSW 11.8 mph19.0 kmh 30.17 in1021.7 mb 0.00 in0.0 mm 0.00 in0.0 mm 0.02 in0.5 mm
04:21 PM 49.2°F9.6°C 42.2°F5.7°C 76% 4.3 mph SW6.9 kmh SW 10.3 mph16.6 kmh 30.17 in1021.7 mb 0.00 in0.0 mm 0.00 in0.0 mm 0.02 in0.5 mm
04:51 PM 45.1°F7.3°C 39.8°F4.3°C 81% 3.8 mph SSW6.1 kmh SSW 6.8 mph10.9 kmh 30.18 in1022.0 mb 0.00 in0.0 mm 0.00 in0.0 mm 0.02 in0.5 mm
05:21 PM 43.1°F6.2°C 38.9°F3.8°C 84% 0.7 mph SSW1.1 kmh SSW 3.1 mph5.0 kmh 30.18 in1022.0 mb 0.00 in0.0 mm 0.00 in0.0 mm 0.02 in0.5 mm
05:51 PM 41.7°F5.4°C 38.3°F3.5°C 87% Calm Calm -- 30.19 in1022.4 mb 0.00 in0.0 mm 0.00 in0.0 mm 0.02 in0.5 mm
06:21 PM 40.6°F4.8°C 37.9°F3.3°C 90% Calm Calm -- 30.20 in1022.7 mb 0.00 in0.0 mm 0.00 in0.0 mm 0.02 in0.5 mm
06:51 PM 39.5°F4.2°C 37.8°F3.2°C 93% Calm Calm -- 30.21 in1023.0 mb 0.00 in0.0 mm 0.00 in0.0 mm 0.02 in0.5 mm
07:21 PM 39.5°F4.2°C 37.9°F3.3°C 94% Calm Calm -- 30.22 in1023.4 mb 0.00 in0.0 mm 0.00 in0.0 mm 0.02 in0.5 mm
07:51 PM 37.4°F3.0°C 36.1°F2.3°C 95% Calm Calm -- 30.23 in1023.7 mb 0.00 in0.0 mm 0.00 in0.0 mm 0.02 in0.5 mm
08:21 PM 36.3°F2.4°C 35.5°F1.9°C 97% Calm Calm -- 30.24 in1024.0 mb 0.00 in0.0 mm 0.00 in0.0 mm 0.02 in0.5 mm
08:51 PM 38.1°F3.4°C 37.7°F3.2°C 98% Calm Calm -- 30.25 in1024.4 mb 0.00 in0.0 mm 0.00 in0.0 mm 0.02 in0.5 mm